Terminal Aerodrome Forecast
Issued by NWS Nashville, TN

Home | Current Version | Previous Version | Text Only | Print | Product List | Glossary On
Versions: 1 2 3 4 5 6 7 8 9 10 11 12 13 14 15
000
FTUS44 KOHX 281700
TAFCSV
TAF
KCSV 281724Z 2818/0118 15009KT P6SM OVC100
     FM010400 16003KT P6SM OVC050
     FM010700 VRB03KT 5SM BR OVC015
     FM011000 18004KT 4SM BR OVC007
     FM011400 20004KT 3SM -RA BR OVC004=

USA.gov is the U.S. government's official web portal to all federal, state and local government web resources and services.